createdAt,value
2017-02-11T07:14:20.210Z,5
2017-02-11T07:15:30.364Z,5
2017-02-11T07:16:40.089Z,5
2017-02-11T07:17:50.250Z,5
2017-02-11T07:18:59.532Z,5
2017-02-11T07:20:08.865Z,5
2017-02-11T07:21:19.475Z,5
2017-02-11T07:22:28.759Z,5
2017-02-11T07:23:38.920Z,5
2017-02-11T07:24:48.645Z,5
2017-02-11T07:25:58.850Z,5
2017-02-11T07:27:08.582Z,5
2017-02-11T07:28:18.303Z,5
2017-02-11T07:29:28.026Z,5
2017-02-11T07:30:37.746Z,10
2017-02-11T07:31:47.949Z,10
2017-02-11T07:32:57.234Z,10
2017-02-11T07:34:08.271Z,10
2017-02-11T07:35:17.556Z,10
2017-02-11T07:36:27.284Z,10
2017-02-11T07:37:37.493Z,10
2017-02-11T07:38:50.174Z,10
2017-02-11T07:40:01.057Z,10
2017-02-11T07:41:12.370Z,15
2017-02-11T07:42:23.347Z,15
2017-02-11T07:43:32.842Z,15
2017-02-11T07:44:44.560Z,15
2017-02-11T07:45:55.753Z,15
2017-02-11T07:47:06.152Z,15
2017-02-11T07:48:15.440Z,20
2017-02-11T07:49:25.902Z,20
2017-02-11T07:50:35.794Z,20
2017-02-11T07:51:45.985Z,20
2017-02-11T07:52:55.821Z,20
2017-02-11T07:54:05.545Z,20
2017-02-11T07:55:15.759Z,20
2017-02-11T07:56:26.465Z,25
2017-02-11T07:57:35.750Z,25
2017-02-11T07:58:45.124Z,25
2017-02-11T07:59:56.336Z,25
2017-02-11T08:01:07.986Z,25
2017-02-11T08:02:19.177Z,25
2017-02-11T08:03:30.695Z,25
2017-02-11T08:04:40.438Z,20
2017-02-11T08:05:51.091Z,20
2017-02-11T08:07:01.306Z,20
2017-02-11T08:08:12.290Z,20
2017-02-11T08:09:23.449Z,20
2017-02-11T08:10:33.546Z,20
2017-02-11T08:11:44.158Z,20
2017-02-11T08:12:54.582Z,15
2017-02-11T08:14:05.034Z,15
2017-02-11T08:15:15.454Z,15
2017-02-11T08:16:25.176Z,15
2017-02-11T08:17:37.130Z,15
2017-02-11T08:18:46.854Z,15
2017-02-11T08:19:58.333Z,20
2017-02-11T08:21:09.312Z,20
2017-02-11T08:22:21.114Z,20
2017-02-11T08:23:32.655Z,20
2017-02-11T08:24:45.004Z,20
2017-02-11T08:25:56.165Z,20
2017-02-11T08:27:07.431Z,20
2017-02-11T08:28:18.771Z,25
2017-02-11T08:29:29.126Z,25
2017-02-11T08:30:38.459Z,25
2017-02-11T08:31:49.811Z,20
2017-02-11T08:33:01.018Z,20
2017-02-11T08:34:12.503Z,20
2017-02-11T08:35:23.991Z,20
2017-02-11T08:36:35.106Z,20
2017-02-11T08:37:45.158Z,20
2017-02-11T08:38:55.940Z,20
2017-02-11T08:40:06.548Z,20
2017-02-11T08:41:17.785Z,20
2017-02-11T08:42:28.143Z,25
2017-02-11T08:43:37.424Z,25
2017-02-11T08:44:46.753Z,25
2017-02-11T08:45:57.425Z,25
2017-02-11T08:47:08.230Z,25
2017-02-11T08:48:19.257Z,30
2017-02-11T08:49:29.286Z,30
2017-02-11T08:50:38.764Z,30
2017-02-11T08:51:48.485Z,30
2017-02-11T08:52:58.441Z,30
2017-02-11T08:54:08.041Z,25
2017-02-11T08:55:18.820Z,25
2017-02-11T08:56:28.988Z,30
2017-02-11T08:57:39.930Z,30
2017-02-11T08:58:50.539Z,35
2017-02-11T09:00:00.974Z,35
2017-02-11T09:01:11.149Z,40
2017-02-11T09:02:21.882Z,40
2017-02-11T09:03:31.883Z,35
2017-02-11T09:04:43.325Z,35
2017-02-11T09:05:54.238Z,30
2017-02-11T09:07:04.636Z,30
2017-02-11T09:08:15.528Z,30
2017-02-11T09:09:28.479Z,30
2017-02-11T09:10:38.590Z,30
2017-02-11T09:11:49.645Z,55
2017-02-11T09:13:00.677Z,60
2017-02-11T09:14:11.531Z,60
2017-02-11T09:15:21.972Z,60
2017-02-11T09:16:32.962Z,60
2017-02-11T09:17:44.202Z,65
2017-02-11T09:18:55.924Z,60
2017-02-11T09:20:05.689Z,60
2017-02-11T09:21:14.974Z,55
2017-02-11T09:22:25.706Z,50
2017-02-11T09:23:36.407Z,50
2017-02-11T09:24:47.770Z,55
2017-02-11T09:25:57.968Z,65
2017-02-11T09:27:07.252Z,70
2017-02-11T09:28:16.978Z,65
2017-02-11T09:29:26.742Z,70
2017-02-11T09:30:36.028Z,60
2017-02-11T09:31:45.331Z,50
2017-02-11T09:32:54.613Z,40
2017-02-11T09:34:04.770Z,45
2017-02-11T09:35:14.981Z,55
2017-02-11T09:36:25.142Z,55
2017-02-11T09:37:35.300Z,60
2017-02-11T09:38:45.024Z,50
2017-02-11T09:39:54.305Z,50
2017-02-11T09:41:04.527Z,35
2017-02-11T09:42:14.251Z,30
2017-02-11T09:43:23.972Z,35
2017-02-11T09:44:33.699Z,40
2017-02-11T09:45:43.871Z,40
2017-02-11T09:46:53.649Z,40
2017-02-11T09:48:04.262Z,40
2017-02-11T09:49:13.998Z,40
2017-02-11T09:50:24.152Z,40
2017-02-11T09:51:33.877Z,40
2017-02-11T09:52:43.239Z,45
2017-02-11T09:53:53.398Z,40
2017-02-11T09:55:02.677Z,40
2017-02-11T09:56:12.393Z,40
2017-02-11T09:57:21.711Z,40
2017-02-11T09:58:31.927Z,45
2017-02-11T10:00:01.035Z,55
2017-02-11T10:01:10.758Z,65
2017-02-11T10:02:20.484Z,60
2017-02-11T10:03:30.709Z,60
2017-02-11T10:04:40.434Z,50
2017-02-11T10:05:50.603Z,50
2017-02-11T10:07:00.329Z,50
2017-02-11T10:08:10.058Z,55
2017-02-11T10:09:20.267Z,60
2017-02-11T10:10:29.547Z,55
2017-02-11T10:11:40.589Z,55
2017-02-11T10:12:50.325Z,60
2017-02-11T10:14:00.500Z,65
2017-02-11T10:15:10.273Z,55
2017-02-11T10:16:20.441Z,60
2017-02-11T10:17:30.171Z,65
2017-02-11T10:18:39.448Z,60
2017-02-11T10:19:49.170Z,60
2017-02-11T10:20:58.945Z,65
2017-02-11T10:22:08.664Z,75
2017-02-11T10:23:18.388Z,80
2017-02-11T10:24:27.672Z,65
2017-02-11T10:25:37.408Z,60
2017-02-11T10:26:47.733Z,75
2017-02-11T10:27:57.022Z,70
2017-02-11T10:29:08.238Z,80
2017-02-11T10:30:19.430Z,85
2017-02-11T10:31:29.633Z,70
2017-02-11T10:32:39.422Z,75
2017-02-11T10:33:50.384Z,75
2017-02-11T10:35:00.353Z,75
2017-02-11T10:36:10.601Z,75
2017-02-11T10:37:21.579Z,75
2017-02-11T10:38:32.397Z,70
2017-02-11T10:39:43.366Z,65
2017-02-11T10:40:53.706Z,65
2017-02-11T10:42:03.279Z,60
2017-02-11T10:43:13.565Z,55
2017-02-11T10:44:25.323Z,50
2017-02-11T10:45:35.784Z,45
2017-02-11T10:46:46.287Z,50
2017-02-11T10:47:56.445Z,60
2017-02-11T10:49:06.219Z,60
2017-02-11T10:50:15.572Z,60
2017-02-11T10:51:25.294Z,55
2017-02-11T10:52:35.019Z,55
2017-02-11T10:53:45.184Z,55
2017-02-11T10:54:54.908Z,65
2017-02-11T10:56:05.126Z,60
2017-02-11T10:57:14.415Z,65
2017-02-11T10:58:24.139Z,65
2017-02-11T10:59:33.432Z,70
2017-02-11T11:00:43.155Z,65
2017-02-11T11:01:52.930Z,60
2017-02-11T11:03:02.227Z,50
2017-02-11T11:04:11.510Z,50
2017-02-11T11:05:22.110Z,50
2017-02-11T11:06:32.708Z,55
2017-02-11T11:07:42.075Z,60
2017-02-11T11:08:52.283Z,50
2017-02-11T11:10:01.607Z,55
2017-02-11T11:11:11.327Z,60
2017-02-11T11:12:21.925Z,65
2017-02-11T11:13:32.572Z,65
2017-02-11T11:14:42.307Z,70
2017-02-11T11:15:52.038Z,85
2017-02-11T11:17:01.324Z,75
2017-02-11T11:18:11.044Z,70
2017-02-11T11:19:20.381Z,75
2017-02-11T11:20:30.553Z,80
2017-02-11T11:21:40.720Z,85
2017-02-11T11:22:50.895Z,85
2017-02-11T11:24:00.614Z,90
2017-02-11T11:25:10.819Z,80
2017-02-11T11:26:21.849Z,80
2017-02-11T11:27:31.580Z,80
2017-02-11T11:28:41.309Z,80
2017-02-11T11:29:51.039Z,75
2017-02-11T11:31:00.380Z,80
2017-02-11T11:32:10.112Z,75
2017-02-11T11:33:20.280Z,75
2017-02-11T11:34:30.013Z,70
2017-02-11T11:35:39.735Z,70
2017-02-11T11:36:49.507Z,75
2017-02-11T11:37:59.243Z,75
2017-02-11T11:39:09.408Z,80
2017-02-11T11:40:19.130Z,80
2017-02-11T11:41:29.294Z,80
2017-02-11T11:42:39.071Z,85
2017-02-11T11:43:49.289Z,80
2017-02-11T11:44:59.015Z,80
2017-02-11T11:46:09.637Z,75
2017-02-11T11:47:18.932Z,80
2017-02-11T11:48:28.860Z,85
2017-02-11T11:49:38.591Z,95
2017-02-11T11:50:48.752Z,90
2017-02-11T11:51:59.346Z,90
2017-02-11T11:53:08.686Z,85
2017-02-11T11:54:18.939Z,90
2017-02-11T11:55:30.081Z,95
2017-02-11T11:56:40.686Z,90
2017-02-11T11:57:50.861Z,85
2017-02-11T11:59:00.590Z,90
2017-02-11T12:00:09.922Z,95
2017-02-11T12:01:19.220Z,90
2017-02-11T12:02:29.385Z,90
2017-02-11T12:03:39.111Z,85
2017-02-11T12:04:49.720Z,80
2017-02-11T12:05:59.057Z,75
2017-02-11T12:07:08.346Z,85
2017-02-11T12:08:18.092Z,80
2017-02-11T12:09:27.385Z,85
2017-02-11T12:10:37.998Z,80
2017-02-11T12:11:48.663Z,75
2017-02-11T12:12:58.832Z,75
2017-02-11T12:14:08.124Z,70
2017-02-11T12:15:18.731Z,70
2017-02-11T12:16:28.458Z,70
2017-02-11T12:17:38.229Z,65
2017-02-11T12:18:48.398Z,70
2017-02-11T12:19:57.691Z,70
2017-02-11T12:21:07.412Z,70
2017-02-11T12:22:17.137Z,70
2017-02-11T12:23:26.911Z,75
2017-02-11T12:24:37.072Z,70
2017-02-11T12:25:46.801Z,70
2017-02-11T12:26:56.978Z,75
2017-02-11T12:28:07.579Z,75
2017-02-11T12:29:17.356Z,70
2017-02-11T12:30:26.650Z,65
2017-02-11T12:31:36.378Z,65
2017-02-11T12:32:46.109Z,65
2017-02-11T12:33:55.846Z,65
2017-02-11T12:35:05.625Z,60
2017-02-11T12:36:15.790Z,55
2017-02-11T12:37:26.839Z,65
2017-02-11T12:38:36.567Z,60
2017-02-11T12:39:46.767Z,55
2017-02-11T12:40:56.549Z,55
2017-02-11T12:42:06.278Z,50
2017-02-11T12:43:16.009Z,50
2017-02-11T12:44:25.728Z,50
2017-02-11T12:45:35.461Z,50
2017-02-11T12:46:46.119Z,50
2017-02-11T12:47:55.850Z,45
2017-02-11T12:49:06.027Z,50
2017-02-11T12:50:16.206Z,50
2017-02-11T12:51:25.934Z,50
2017-02-11T12:52:36.148Z,45
2017-02-11T12:53:46.315Z,50
2017-02-11T12:54:56.481Z,55
2017-02-11T12:56:06.211Z,55
2017-02-11T12:57:15.929Z,55
2017-02-11T12:58:25.707Z,60
2017-02-11T12:59:35.908Z,55
2017-02-11T13:00:45.193Z,55
2017-02-11T13:01:55.362Z,55
2017-02-11T13:03:05.101Z,60
2017-02-11T13:04:14.869Z,55
2017-02-11T13:05:25.480Z,60
2017-02-11T13:06:35.637Z,65
2017-02-11T13:07:45.796Z,65
2017-02-11T13:08:56.413Z,65
2017-02-11T13:10:06.641Z,50
2017-02-11T13:11:16.372Z,50
2017-02-11T13:12:26.098Z,45
2017-02-11T13:13:35.834Z,35
2017-02-11T13:14:46.439Z,45
2017-02-11T13:15:56.216Z,40
2017-02-11T13:17:05.941Z,40
2017-02-11T13:18:15.699Z,40
2017-02-11T13:19:25.436Z,40
2017-02-11T13:20:34.720Z,45
2017-02-11T13:21:44.058Z,40
2017-02-11T13:22:53.507Z,35
2017-02-11T13:24:04.223Z,40
2017-02-11T13:25:14.316Z,40
2017-02-11T13:26:25.698Z,40
2017-02-11T13:27:35.483Z,40
2017-02-11T13:28:45.209Z,40
2017-02-11T13:29:55.399Z,40
2017-02-11T13:31:06.122Z,40
2017-02-11T13:32:16.737Z,35
2017-02-11T13:33:26.452Z,35
2017-02-11T13:34:36.190Z,40
2017-02-11T13:35:46.426Z,35
2017-02-11T13:36:56.252Z,35
2017-02-11T13:38:06.197Z,30
2017-02-11T13:39:16.448Z,35
2017-02-11T13:40:26.816Z,35
2017-02-11T13:41:36.102Z,30
2017-02-11T13:42:45.835Z,35
2017-02-11T13:43:55.559Z,35
2017-02-11T13:45:05.681Z,30
2017-02-11T13:46:15.409Z,30
2017-02-11T13:47:25.350Z,30
2017-02-11T13:48:35.260Z,30
2017-02-11T13:49:45.877Z,35
2017-02-11T13:50:56.207Z,35
2017-02-11T13:52:05.973Z,35
2017-02-11T13:53:15.268Z,35
2017-02-11T13:54:25.009Z,30
2017-02-11T13:55:35.315Z,30
2017-02-11T13:56:45.894Z,30
2017-02-11T13:57:55.278Z,30
2017-02-11T13:59:05.701Z,30
2017-02-11T14:00:16.140Z,30
2017-02-11T14:01:26.269Z,25
2017-02-11T14:02:36.471Z,25
2017-02-11T14:03:46.633Z,25
2017-02-11T14:04:56.876Z,30
2017-02-11T14:06:07.481Z,25
2017-02-11T14:07:17.643Z,25
2017-02-11T14:08:28.112Z,20
2017-02-11T14:09:37.846Z,20
2017-02-11T14:10:48.014Z,20
2017-02-11T14:11:58.185Z,20
2017-02-11T14:13:08.800Z,20
2017-02-11T14:14:19.276Z,15
2017-02-11T14:15:28.565Z,15
2017-02-11T14:16:37.925Z,15
2017-02-11T14:17:47.654Z,15
2017-02-11T14:18:57.382Z,15
2017-02-11T14:20:07.796Z,15
2017-02-11T14:21:20.320Z,15
2017-02-11T14:22:31.517Z,10
2017-02-11T14:23:42.756Z,15
2017-02-11T14:24:53.492Z,10
2017-02-11T14:26:04.519Z,10
2017-02-11T14:27:15.467Z,15
2017-02-11T14:28:26.035Z,15
2017-02-11T14:29:36.727Z,15
2017-02-11T14:30:48.374Z,15
2017-02-11T14:32:02.555Z,15
2017-02-11T14:33:13.560Z,15
2017-02-11T14:34:25.113Z,15
2017-02-11T14:35:36.910Z,15
2017-02-11T14:36:49.143Z,15
2017-02-11T14:38:01.589Z,15
2017-02-11T14:39:12.874Z,15
2017-02-11T14:40:22.277Z,20
2017-02-11T14:41:32.446Z,20
2017-02-11T14:42:41.955Z,20
2017-02-11T14:43:52.215Z,20
2017-02-11T14:45:01.945Z,20
2017-02-11T14:46:12.211Z,20
2017-02-11T14:47:22.812Z,20
2017-02-11T14:48:33.046Z,20
2017-02-11T14:49:42.381Z,20
2017-02-11T14:50:52.551Z,20
2017-02-11T14:52:02.189Z,20
2017-02-11T14:53:12.561Z,25
2017-02-11T14:54:23.034Z,20
2017-02-11T14:55:33.192Z,20
2017-02-11T14:56:43.038Z,20
2017-02-11T14:57:54.527Z,25
2017-02-11T14:59:04.312Z,25
2017-02-11T15:00:13.976Z,25
2017-02-11T15:01:24.140Z,20
2017-02-11T15:02:34.739Z,20
2017-02-11T15:03:44.465Z,20
2017-02-11T15:04:54.678Z,20
2017-02-11T15:06:03.971Z,20
2017-02-11T15:07:14.671Z,20
2017-02-11T15:08:24.428Z,20
2017-02-11T15:09:34.157Z,20
2017-02-11T15:10:45.126Z,15
2017-02-11T15:11:55.609Z,15
2017-02-11T15:13:05.924Z,15
2017-02-11T15:14:16.397Z,15
2017-02-11T15:15:26.191Z,15
2017-02-11T15:16:37.254Z,15
2017-02-11T15:17:47.039Z,15
2017-02-11T15:18:57.586Z,15
2017-02-11T15:20:10.609Z,15
2017-02-11T15:21:21.219Z,15
2017-02-11T15:22:32.163Z,15
2017-02-11T15:23:41.945Z,15
2017-02-11T15:24:52.617Z,15
2017-02-11T15:26:01.912Z,15
2017-02-11T15:27:11.640Z,15
2017-02-11T15:28:20.924Z,15
2017-02-11T15:29:32.031Z,15
2017-02-11T15:30:41.760Z,15
2017-02-11T15:31:51.483Z,15
2017-02-11T15:33:01.749Z,15
2017-02-11T15:34:13.045Z,15
2017-02-11T15:35:22.580Z,10
2017-02-11T15:36:32.312Z,15
2017-02-11T15:37:41.598Z,15
2017-02-11T15:38:51.399Z,15
2017-02-11T15:40:00.681Z,10
2017-02-11T15:41:10.898Z,10
2017-02-11T15:42:20.189Z,10
2017-02-11T15:43:29.951Z,10
2017-02-11T15:44:39.690Z,10
2017-02-11T15:45:49.178Z,10
2017-02-11T15:46:59.898Z,10
2017-02-11T15:48:10.249Z,10
2017-02-11T15:49:20.422Z,10
2017-02-11T15:50:30.150Z,10
2017-02-11T15:51:39.891Z,5
2017-02-11T15:52:50.113Z,5
2017-02-11T15:54:00.722Z,5
2017-02-11T15:55:10.021Z,5
2017-02-11T15:56:20.181Z,5
2017-02-11T15:57:29.906Z,5
2017-02-11T15:58:40.608Z,5
2017-02-11T15:59:50.416Z,5
2017-02-11T16:01:00.149Z,5
2017-02-11T16:02:10.304Z,5
2017-02-11T16:03:20.037Z,5
2017-02-11T16:04:30.119Z,0
2017-02-11T16:05:40.334Z,0
2017-02-11T16:06:50.555Z,0
2017-02-11T16:07:59.887Z,0
2017-02-11T16:09:09.945Z,0
2017-02-11T16:10:19.233Z,0
2017-02-11T16:11:30.619Z,0
2017-02-11T16:12:41.358Z,0
2017-02-11T16:13:52.150Z,0
2017-02-11T16:15:02.774Z,0
2017-02-11T16:16:12.281Z,0
2017-02-11T16:17:22.058Z,0
2017-02-11T16:18:32.555Z,0
2017-02-11T16:19:43.483Z,0
2017-02-11T16:20:54.086Z,0
2017-02-11T16:22:03.822Z,0
2017-02-11T16:23:14.386Z,0
2017-02-11T16:24:24.180Z,0
2017-02-11T16:25:33.906Z,0
2017-02-11T16:26:44.654Z,0
2017-02-11T16:27:55.591Z,0
2017-02-11T16:29:06.249Z,0
2017-02-11T16:30:16.870Z,0
2017-02-11T16:31:27.883Z,0
2017-02-11T16:32:37.491Z,0
2017-02-11T16:33:47.790Z,0
2017-02-11T16:34:57.510Z,0
2017-02-11T16:36:08.910Z,0
2017-02-11T16:37:19.989Z,0
2017-02-11T16:38:31.494Z,0
2017-02-11T16:39:40.950Z,0
2017-02-11T16:40:50.971Z,0
2017-02-11T16:42:01.254Z,0
2017-02-11T16:43:11.180Z,0
2017-02-11T16:44:21.724Z,0
2017-02-11T16:45:33.128Z,0
2017-02-11T16:46:42.903Z,0
2017-02-11T16:47:52.620Z,0
2017-02-11T16:49:02.501Z,0
2017-02-11T16:50:12.789Z,0
2017-02-11T16:51:23.095Z,0
2017-02-11T16:52:34.155Z,0
2017-02-11T16:53:45.332Z,0
2017-02-11T16:54:55.830Z,0
2017-02-11T16:56:05.936Z,0
2017-02-11T16:57:16.113Z,0
2017-02-11T16:58:26.427Z,0
2017-02-11T16:59:36.807Z,0
2017-02-11T17:00:46.968Z,0
2017-02-11T17:01:57.330Z,0
2017-02-11T17:03:07.671Z,0
2017-02-11T17:04:17.459Z,0
2017-02-11T17:05:26.742Z,0
2017-02-11T17:06:36.067Z,0
2017-02-11T17:07:46.992Z,0
2017-02-11T17:08:57.046Z,0
2017-02-11T17:10:06.849Z,0
2017-02-11T17:11:17.284Z,0
2017-02-11T17:12:26.568Z,0
2017-02-11T17:13:35.853Z,0
2017-02-11T17:14:46.209Z,0
2017-02-11T17:15:56.488Z,0
2017-02-11T17:17:06.821Z,0
2017-02-11T17:18:16.981Z,0
2017-02-11T17:19:26.515Z,0
2017-02-11T17:20:36.240Z,0
2017-02-11T17:21:46.014Z,0
2017-02-11T17:22:55.482Z,0
2017-02-11T17:24:05.210Z,0
2017-02-11T17:25:14.947Z,0
2017-02-11T17:26:26.514Z,0
2017-02-11T17:27:36.022Z,0
2017-02-11T17:28:47.085Z,0
2017-02-11T17:29:56.804Z,0
2017-02-11T17:31:06.330Z,0
2017-02-11T17:32:16.936Z,0
2017-02-11T17:33:27.852Z,0
2017-02-11T17:34:37.870Z,0
2017-02-11T17:35:48.032Z,0
2017-02-11T17:36:57.765Z,0
2017-02-11T17:38:07.495Z,0
2017-02-11T17:39:17.476Z,0
2017-02-11T17:40:26.759Z,0
2017-02-11T17:41:36.921Z,0
2017-02-11T17:42:46.726Z,0
2017-02-11T17:43:56.534Z,0
2017-02-11T17:45:07.213Z,0
2017-02-11T17:46:17.378Z,0
2017-02-11T17:47:27.550Z,0
2017-02-11T17:48:37.273Z,0
2017-02-11T17:49:47.002Z,0
2017-02-11T17:50:57.392Z,0
2017-02-11T17:52:06.781Z,0
2017-02-11T17:53:17.233Z,0
2017-02-11T17:54:27.127Z,0
2017-02-11T17:55:36.859Z,0
2017-02-11T17:56:47.221Z,0
2017-02-11T17:57:57.344Z,0
2017-02-11T17:59:07.947Z,0
2017-02-11T18:00:18.057Z,0
2017-02-11T18:01:29.277Z,0
2017-02-11T18:02:39.875Z,0
2017-02-11T18:03:49.605Z,0
2017-02-11T18:05:00.216Z,0
2017-02-11T18:06:10.394Z,0
2017-02-11T18:07:19.676Z,0
2017-02-11T18:08:29.893Z,0
2017-02-11T18:09:40.067Z,0
2017-02-11T18:10:49.800Z,0
2017-02-11T18:11:59.973Z,0
2017-02-11T18:13:09.258Z,0
2017-02-11T18:14:19.035Z,0
2017-02-11T18:15:28.763Z,0
2017-02-11T18:16:38.937Z,0
2017-02-11T18:17:48.221Z,0
2017-02-11T18:18:58.386Z,0
2017-02-11T18:20:08.766Z,0
2017-02-11T18:21:18.053Z,0
2017-02-11T18:22:29.346Z,0
2017-02-11T18:23:40.709Z,0
2017-02-11T18:24:51.494Z,0
2017-02-11T18:26:02.465Z,0
2017-02-11T18:27:12.243Z,0
2017-02-11T18:28:22.244Z,0
2017-02-11T18:29:33.061Z,0
2017-02-11T18:30:43.536Z,0
2017-02-11T18:31:53.598Z,0
2017-02-11T18:33:04.050Z,0
2017-02-11T18:34:14.023Z,0
2017-02-11T18:35:24.505Z,0
2017-02-11T18:36:35.068Z,0
2017-02-11T18:37:45.597Z,0
2017-02-11T18:38:56.463Z,0
2017-02-11T18:40:07.421Z,0
2017-02-11T18:41:18.425Z,0
2017-02-11T18:42:29.136Z,0
2017-02-11T18:43:39.426Z,0
2017-02-11T18:44:49.491Z,0
2017-02-11T18:46:00.091Z,0
2017-02-11T18:47:10.267Z,0
2017-02-11T18:48:20.434Z,0
2017-02-11T18:49:30.761Z,0
2017-02-11T18:50:40.935Z,0
2017-02-11T18:51:51.129Z,0
2017-02-11T18:53:00.811Z,0
2017-02-11T18:54:10.552Z,0
2017-02-11T18:55:21.087Z,0
2017-02-11T18:56:31.345Z,0
2017-02-11T18:57:40.632Z,0
2017-02-11T18:58:50.051Z,0
2017-02-11T19:00:00.552Z,0
2017-02-11T19:01:11.311Z,0
2017-02-11T19:02:21.042Z,0
2017-02-11T19:03:31.906Z,0
2017-02-11T19:04:42.007Z,0
2017-02-11T19:05:51.731Z,0
2017-02-11T19:07:01.661Z,0
2017-02-11T19:08:11.606Z,0
2017-02-11T19:09:22.254Z,0
2017-02-11T19:10:33.688Z,0
2017-02-11T19:11:44.340Z,0
2017-02-11T19:12:55.222Z,0
2017-02-11T19:14:06.232Z,0
2017-02-11T19:15:16.923Z,0
2017-02-11T19:16:27.743Z,0
2017-02-11T19:17:38.898Z,0
2017-02-11T19:18:51.009Z,0
2017-02-11T19:20:04.728Z,0
2017-02-11T19:21:17.739Z,0
2017-02-11T19:22:29.115Z,0
2017-02-11T19:23:40.356Z,0
2017-02-11T19:24:54.594Z,0
2017-02-11T19:26:07.556Z,0
2017-02-11T19:27:18.484Z,0
2017-02-11T19:28:28.262Z,0
2017-02-11T19:29:37.544Z,0
2017-02-11T19:30:47.269Z,0
2017-02-11T19:31:56.558Z,0
2017-02-11T19:33:06.287Z,0
2017-02-11T19:34:16.061Z,0
2017-02-11T19:35:27.118Z,0
2017-02-11T19:36:36.839Z,0
2017-02-11T19:37:46.128Z,0
2017-02-11T19:38:56.293Z,0
2017-02-11T19:40:05.626Z,0
2017-02-11T19:41:15.356Z,0
2017-02-11T19:42:25.081Z,0
2017-02-11T19:43:34.802Z,0
2017-02-11T19:44:44.535Z,0
2017-02-11T19:45:55.203Z,0
2017-02-11T19:47:04.938Z,0
2017-02-11T19:48:15.113Z,0
2017-02-11T19:49:25.768Z,0
2017-02-11T19:50:35.536Z,0
2017-02-11T19:51:46.194Z,0
2017-02-11T19:52:55.927Z,0
2017-02-11T19:54:05.219Z,0
2017-02-11T19:55:14.954Z,0
2017-02-11T19:56:25.180Z,0
2017-02-11T19:57:34.964Z,0
2017-02-11T19:58:44.692Z,0
2017-02-11T19:59:54.883Z,0
2017-02-11T20:01:05.503Z,0
2017-02-11T20:02:15.680Z,0
2017-02-11T20:03:25.896Z,0
2017-02-11T20:04:36.498Z,0
2017-02-11T20:05:45.837Z,0
2017-02-11T20:06:56.005Z,0
2017-02-11T20:08:05.735Z,0
2017-02-11T20:09:15.955Z,0
2017-02-11T20:10:26.125Z,0
2017-02-11T20:11:35.413Z,0
2017-02-11T20:12:45.134Z,0
2017-02-11T20:13:55.319Z,0
2017-02-11T20:15:05.098Z,0
2017-02-11T20:16:15.272Z,0
2017-02-11T20:17:25.436Z,0
2017-02-11T20:18:34.722Z,0
2017-02-11T20:19:45.344Z,0
2017-02-11T20:20:55.132Z,0
2017-02-11T20:22:06.279Z,0
2017-02-11T20:23:17.330Z,0
2017-02-11T20:24:27.078Z,0
2017-02-11T20:25:36.809Z,0
2017-02-11T20:26:47.053Z,0
2017-02-11T20:27:56.791Z,0
2017-02-11T20:29:06.512Z,0
2017-02-11T20:30:15.805Z,0
2017-02-11T20:31:25.973Z,0
2017-02-11T20:32:36.192Z,0
2017-02-11T20:33:45.481Z,0
2017-02-11T20:34:54.775Z,0
2017-02-11T20:36:04.944Z,0
2017-02-11T20:37:14.668Z,0
2017-02-11T20:38:24.892Z,0
2017-02-11T20:39:35.051Z,0
2017-02-11T20:40:44.336Z,0
2017-02-11T20:41:54.511Z,0
2017-02-11T20:43:03.839Z,0
2017-02-11T20:44:13.619Z,0
2017-02-11T20:45:23.825Z,0
2017-02-11T20:46:33.554Z,0
2017-02-11T20:47:43.729Z,0
2017-02-11T20:48:53.456Z,0
2017-02-11T20:50:03.984Z,0
2017-02-11T20:51:14.159Z,0
2017-02-11T20:52:23.443Z,0
2017-02-11T20:53:33.620Z,0
2017-02-11T20:54:43.355Z,0
2017-02-11T20:55:52.694Z,0
2017-02-11T20:57:03.300Z,0
2017-02-11T20:58:12.599Z,0
2017-02-11T20:59:23.215Z,0
2017-02-11T21:00:32.944Z,0
2017-02-11T21:01:42.728Z,0
2017-02-11T21:02:52.018Z,0
2017-02-11T21:04:02.184Z,0
2017-02-11T21:05:12.392Z,0
2017-02-11T21:06:21.697Z,0
2017-02-11T21:07:31.519Z,0
2017-02-11T21:08:40.808Z,0
2017-02-11T21:09:50.537Z,0
2017-02-11T21:11:00.269Z,0
2017-02-11T21:12:09.995Z,0
2017-02-11T21:13:19.768Z,0
2017-02-11T21:14:29.054Z,0
2017-02-11T21:15:39.232Z,0
2017-02-11T21:16:48.516Z,0
2017-02-11T21:17:58.686Z,0
2017-02-11T21:19:08.019Z,0
2017-02-11T21:20:17.761Z,0
2017-02-11T21:21:27.489Z,0
2017-02-11T21:22:37.212Z,0
2017-02-11T21:23:47.828Z,0
2017-02-11T21:24:58.475Z,0
2017-02-11T21:26:08.204Z,0
2017-02-11T21:27:17.937Z,0
2017-02-11T21:28:27.664Z,0
2017-02-11T21:29:37.389Z,0
2017-02-11T21:30:47.613Z,0
2017-02-11T21:31:57.774Z,0
2017-02-11T21:33:07.503Z,0
2017-02-11T21:34:16.790Z,0
2017-02-11T21:35:26.951Z,0
2017-02-11T21:36:36.732Z,0
2017-02-11T21:37:46.453Z,0
2017-02-11T21:38:56.178Z,0
2017-02-11T21:40:05.904Z,0
2017-02-11T21:41:15.187Z,0
2017-02-11T21:42:24.961Z,0
2017-02-11T21:43:35.118Z,0
2017-02-11T21:44:44.849Z,0
2017-02-11T21:45:54.573Z,0
2017-02-11T21:47:04.302Z,0
2017-02-11T21:48:13.642Z,0
2017-02-11T21:49:22.923Z,0
2017-02-11T21:50:33.089Z,0
2017-02-11T21:51:42.811Z,0
2017-02-11T21:52:52.579Z,0
2017-02-11T21:54:02.353Z,0
2017-02-11T21:55:12.066Z,0
2017-02-11T21:56:22.684Z,0
2017-02-11T21:57:31.965Z,0
2017-02-11T21:58:41.254Z,0
2017-02-11T21:59:51.464Z,0
2017-02-11T22:01:00.753Z,0
2017-02-11T22:02:10.481Z,0
2017-02-11T22:03:20.206Z,0
2017-02-11T22:04:29.492Z,0
2017-02-11T22:05:39.261Z,0
2017-02-11T22:06:48.990Z,0
2017-02-11T22:07:59.154Z,0
2017-02-11T22:09:08.872Z,0
2017-02-11T22:10:18.152Z,0
